Melocheville, Canada
Current Conditions -  °F | °C
As of 3:00 AM on Thursday 23 Oct 2014 (Local Time) from CYUL Reporting Station
Broken Clouds Broken Clouds  
Wind Chill: 37°   Ceiling: 6200
Heat Index: 45°   Visibility: 15mi
Dew Point: 36°   Wind: 16mph
Humidity: 71%   Direction: 30°NNE
Pressure: 30.13"   Gusts: 23mph
Location:  45.32°N, 73.93°W
Report Text: CYUL 230700Z 03014G20KT 15SM BKN062 BKN080 07/02 A3013 RMK SC6AC1 SLP205
Loading
Personal Weather Stations






























Interactive Weather Map
Tropical Storm Tracking
New forecast layout! Learn more

10-Day Weather Forecast

Advertisements
Track Severe Weather on mobile